Time;durP1;ratioP1;P1;durP2;ratioP2;P2;SDS_P1;SDS_P2;PMS_P1;PMS_P2;Temp;Humidity;BMP_temperature;BMP_pressure;BME280_temperature;BME280_humidity;BME280_pressure;Samples;Min_cycle;Max_cycle;Signal;HPM_P1;HPM_P2
2021/03/13 00:00:56;;;;;;;5.53;1.92;;;3.70;92.40;;;;;;5048779;28;20008;-74
2021/03/13 00:03:22;;;;;;;3.50;1.83;;;3.70;92.40;;;;;;5082205;28;20028;-74
2021/03/13 00:05:47;;;;;;;2.30;1.65;;;3.70;92.70;;;;;;5045650;28;20041;-74
2021/03/13 00:08:13;;;;;;;4.75;2.10;;;3.70;92.50;;;;;;5079749;28;20031;-73
2021/03/13 00:10:40;;;;;;;6.00;1.92;;;3.70;93.00;;;;;;5085685;28;20302;-74
2021/03/13 00:13:05;;;;;;;3.60;2.00;;;3.60;92.50;;;;;;5086213;28;20135;-74
2021/03/13 00:15:31;;;;;;;7.20;2.25;;;3.60;92.60;;;;;;5048783;28;20021;-73
2021/03/13 00:17:57;;;;;;;2.83;2.10;;;3.60;92.80;;;;;;5042989;28;20080;-73
2021/03/13 00:20:24;;;;;;;3.63;2.08;;;3.60;92.90;;;;;;5066045;28;20031;-73
2021/03/13 00:22:50;;;;;;;2.97;2.05;;;3.70;92.90;;;;;;5048490;28;20044;-74
2021/03/13 00:25:16;;;;;;;4.47;2.00;;;3.60;92.70;;;;;;5065026;28;20019;-73
2021/03/13 00:27:47;;;;;;;3.20;2.00;;;3.60;92.80;;;;;;5075655;28;20025;-73
2021/03/13 00:30:23;;;;;;;5.80;2.22;;;3.60;92.80;;;;;;5083656;28;20071;-73
2021/03/13 00:32:59;;;;;;;6.75;2.40;;;3.50;92.80;;;;;;5048659;28;20078;-73
2021/03/13 00:35:26;;;;;;;4.90;2.50;;;3.50;93.00;;;;;;5065277;28;20058;-73
2021/03/13 00:37:52;;;;;;;5.30;2.38;;;3.40;93.10;;;;;;5077143;28;20375;-73
2021/03/13 00:40:19;;;;;;;5.22;2.58;;;3.40;93.00;;;;;;5102189;28;20013;-73
2021/03/13 00:42:45;;;;;;;6.72;2.42;;;3.30;93.10;;;;;;5053755;28;20009;-74
2021/03/13 00:45:12;;;;;;;4.28;2.50;;;3.30;93.30;;;;;;5061071;28;20062;-73
2021/03/13 00:47:38;;;;;;;4.03;2.75;;;3.40;93.30;;;;;;5064039;28;20011;-74
2021/03/13 00:50:04;;;;;;;5.32;2.70;;;3.40;93.40;;;;;;5047677;28;20267;-74
2021/03/13 00:52:30;;;;;;;6.60;2.72;;;3.40;93.30;;;;;;5064260;28;20009;-74
2021/03/13 00:54:56;;;;;;;6.55;2.97;;;3.40;93.30;;;;;;5064433;28;20012;-74
2021/03/13 00:57:21;;;;;;;5.05;2.97;;;3.40;93.20;;;;;;5070968;28;20013;-74
2021/03/13 00:59:47;;;;;;;4.95;2.90;;;3.40;93.30;;;;;;5072094;28;20020;-74
2021/03/13 01:02:13;;;;;;;4.43;2.85;;;3.40;93.20;;;;;;5064133;28;20009;-74
2021/03/13 01:04:38;;;;;;;5.60;3.72;;;3.30;93.10;;;;;;5064592;28;20043;-74
2021/03/13 01:07:04;;;;;;;11.52;3.42;;;3.30;93.10;;;;;;5068289;28;20044;-74
2021/03/13 01:09:29;;;;;;;6.13;3.58;;;3.30;93.10;;;;;;5077148;28;20068;-73
2021/03/13 01:11:55;;;;;;;10.35;5.18;;;3.20;93.10;;;;;;5068601;28;20020;-73
2021/03/13 01:14:21;;;;;;;9.52;4.63;;;3.20;93.10;;;;;;5048017;28;20009;-73
2021/03/13 01:16:46;;;;;;;5.43;3.22;;;3.20;93.00;;;;;;5066436;28;20037;-73
2021/03/13 01:19:12;;;;;;;7.70;3.90;;;3.20;93.10;;;;;;5094644;28;20020;-73
2021/03/13 01:21:38;;;;;;;5.60;3.38;;;3.30;93.00;;;;;;5064766;28;20020;-73
2021/03/13 01:24:04;;;;;;;5.50;3.70;;;3.30;93.00;;;;;;5065933;28;20012;-73
2021/03/13 01:26:30;;;;;;;8.93;3.58;;;3.30;93.10;;;;;;5064882;28;20024;-73
2021/03/13 01:28:55;;;;;;;8.40;3.60;;;3.20;92.90;;;;;;5063694;28;20040;-73
2021/03/13 01:31:21;;;;;;;6.05;2.55;;;3.20;92.90;;;;;;5065370;28;20020;-73
2021/03/13 01:33:46;;;;;;;4.47;2.50;;;3.00;92.80;;;;;;5048899;28;20172;-73
2021/03/13 01:36:12;;;;;;;2.55;2.13;;;3.00;93.20;;;;;;5065312;28;20017;-73
2021/03/13 01:38:38;;;;;;;3.78;2.20;;;2.90;92.90;;;;;;5048736;28;20020;-74
2021/03/13 01:41:03;;;;;;;3.15;2.20;;;2.80;93.00;;;;;;5065428;28;20064;-75
2021/03/13 01:43:29;;;;;;;6.18;2.45;;;2.80;93.40;;;;;;5065208;28;20072;-73
2021/03/13 01:45:55;;;;;;;4.72;2.65;;;2.70;93.10;;;;;;5065725;28;20013;-73
2021/03/13 01:48:32;;;;;;;4.03;2.65;;;2.70;93.20;;;;;;5079042;28;20020;-73
2021/03/13 01:50:57;;;;;;;4.78;2.90;;;2.60;93.20;;;;;;5084741;28;20303;-74
2021/03/13 01:53:23;;;;;;;5.70;2.88;;;2.60;93.30;;;;;;5065573;28;20012;-73
2021/03/13 01:55:49;;;;;;;4.20;2.88;;;2.60;93.40;;;;;;5065486;28;20016;-73
2021/03/13 01:58:14;;;;;;;4.85;3.08;;;2.60;93.30;;;;;;5048524;28;20013;-73
2021/03/13 02:00:40;;;;;;;4.60;3.00;;;2.60;93.30;;;;;;5056331;28;20239;-73
2021/03/13 02:03:05;;;;;;;4.30;3.05;;;2.60;93.40;;;;;;5049851;28;20016;-73
2021/03/13 02:05:57;;;;;;;5.07;3.05;;;2.60;93.30;;;;;;5061710;28;20049;-73
2021/03/13 02:08:27;;;;;;;4.45;3.10;;;2.60;93.40;;;;;;5054874;28;20047;-72
2021/03/13 02:11:18;;;;;;;4.50;2.80;;;2.60;93.40;;;;;;5072120;28;20037;-73
2021/03/13 02:14:07;;;;;;;4.78;2.80;;;2.60;93.40;;;;;;5077089;28;20092;-73
2021/03/13 02:16:39;;;;;;;5.53;3.30;;;2.60;93.40;;;;;;5076335;28;19997;-73
2021/03/13 02:19:34;;;;;;;11.05;4.25;;;2.60;93.40;;;;;;5076550;28;20009;-73
2021/03/13 02:22:01;;;;;;;12.65;5.10;;;2.60;93.30;;;;;;5060293;28;20084;-73
2021/03/13 02:24:27;;;;;;;4.32;2.75;;;2.60;93.20;;;;;;5069801;28;20009;-73
2021/03/13 02:26:59;;;;;;;4.47;2.42;;;2.60;93.30;;;;;;5065689;28;20088;-73
2021/03/13 02:30:03;;;;;;;7.20;2.80;;;2.60;93.20;;;;;;5065103;28;20113;-73
2021/03/13 02:33:09;;;;;;;11.52;3.05;;;2.50;93.20;;;;;;5065376;28;20020;-73
2021/03/13 02:35:40;;;;;;;6.45;2.33;;;2.50;93.20;;;;;;5050734;28;20020;-73
2021/03/13 02:38:14;;;;;;;7.88;2.42;;;2.50;93.30;;;;;;5065634;28;20127;-73
2021/03/13 02:40:40;;;;;;;4.15;2.53;;;2.50;93.30;;;;;;5048266;28;20016;-73
2021/03/13 02:43:08;;;;;;;6.30;2.08;;;2.50;93.40;;;;;;5065417;28;20271;-73
2021/03/13 02:45:38;;;;;;;4.43;1.75;;;2.60;93.40;;;;;;5062549;28;20017;-73
2021/03/13 02:48:09;;;;;;;2.05;1.40;;;2.60;93.40;;;;;;5048621;28;20024;-73
2021/03/13 02:50:35;;;;;;;4.25;1.50;;;2.60;93.40;;;;;;5062185;28;20017;-73
2021/03/13 02:53:01;;;;;;;2.55;1.25;;;2.60;93.40;;;;;;5039624;28;20039;-73
2021/03/13 02:55:26;;;;;;;2.88;1.45;;;2.60;93.40;;;;;;5064839;28;20381;-73
2021/03/13 02:57:54;;;;;;;2.78;1.58;;;2.70;93.40;;;;;;5065321;28;20009;-73
2021/03/13 03:00:21;;;;;;;2.15;1.42;;;2.70;93.40;;;;;;5053868;28;20329;-73
2021/03/13 03:02:50;;;;;;;2.67;1.50;;;2.70;93.30;;;;;;5038769;28;20028;-74
2021/03/13 03:05:16;;;;;;;3.15;1.55;;;2.80;93.30;;;;;;5059691;28;20072;-74
2021/03/13 03:07:41;;;;;;;3.60;1.80;;;2.80;93.30;;;;;;5064450;28;20013;-74
2021/03/13 03:10:08;;;;;;;4.03;1.67;;;2.80;93.30;;;;;;5047780;28;20017;-74
2021/03/13 03:12:33;;;;;;;4.13;1.60;;;2.90;93.40;;;;;;5064394;28;20214;-74
2021/03/13 03:14:59;;;;;;;7.25;1.50;;;2.90;93.30;;;;;;5072277;28;20012;-74
2021/03/13 03:17:26;;;;;;;5.43;1.70;;;2.90;93.40;;;;;;5048035;28;20306;-74
2021/03/13 03:19:54;;;;;;;3.85;2.00;;;3.00;93.50;;;;;;5063763;28;20032;-74
2021/03/13 03:22:19;;;;;;;4.13;2.22;;;3.00;93.40;;;;;;5047393;28;20038;-73
2021/03/13 03:24:45;;;;;;;5.40;2.78;;;3.00;93.50;;;;;;5063446;28;20059;-73
2021/03/13 03:27:10;;;;;;;4.90;2.70;;;3.00;93.60;;;;;;5064464;28;20021;-73
2021/03/13 03:29:36;;;;;;;4.28;2.53;;;3.00;93.60;;;;;;5064293;28;20032;-73
2021/03/13 03:32:02;;;;;;;5.60;2.70;;;2.90;93.60;;;;;;5063324;28;20206;-73
2021/03/13 03:34:27;;;;;;;5.18;2.88;;;2.90;93.70;;;;;;5063998;28;20009;-73
2021/03/13 03:36:53;;;;;;;6.68;2.20;;;2.90;93.80;;;;;;5066950;28;20009;-73
2021/03/13 03:39:19;;;;;;;5.13;1.95;;;2.90;93.90;;;;;;5066643;28;20009;-73
2021/03/13 03:41:44;;;;;;;6.93;1.65;;;2.90;94.00;;;;;;5048477;28;20032;-73
2021/03/13 03:44:12;;;;;;;3.83;2.10;;;2.90;94.10;;;;;;5063786;28;20039;-73
2021/03/13 03:46:38;;;;;;;8.00;1.85;;;2.90;94.10;;;;;;5064723;28;20008;-73
2021/03/13 03:49:04;;;;;;;5.10;2.45;;;2.90;94.10;;;;;;5075473;28;20398;-74
2021/03/13 03:51:30;;;;;;;6.70;2.60;;;2.90;94.10;;;;;;5063732;28;20017;-73
2021/03/13 03:53:56;;;;;;;6.07;2.83;;;2.90;94.10;;;;;;5064900;28;20356;-73
2021/03/13 03:56:22;;;;;;;10.07;3.60;;;3.00;94.30;;;;;;5045887;28;20010;-73
2021/03/13 03:58:48;;;;;;;7.13;3.60;;;3.00;94.30;;;;;;5048161;28;20353;-73
2021/03/13 04:01:14;;;;;;;10.98;4.55;;;3.00;94.40;;;;;;5047838;28;20029;-73
2021/03/13 04:03:46;;;;;;;8.95;4.55;;;3.00;94.30;;;;;;5066675;28;20013;-73
2021/03/13 04:06:12;;;;;;;;;;;3.00;94.40;;;;;;5050284;28;20041;-73
2021/03/13 04:08:38;;;;;;;11.23;5.18;;;3.00;94.80;;;;;;5050332;28;19966;-73
2021/03/13 04:11:04;;;;;;;15.98;6.30;;;3.00;94.40;;;;;;5046241;28;20059;-73
2021/03/13 04:13:29;;;;;;;16.42;6.65;;;3.10;94.50;;;;;;5031658;28;20013;-73
2021/03/13 04:15:55;;;;;;;13.05;6.82;;;3.00;94.40;;;;;;5067401;28;20035;-73
2021/03/13 04:18:21;;;;;;;12.65;6.88;;;3.10;94.50;;;;;;5083778;28;20218;-73
2021/03/13 04:20:47;;;;;;;18.55;7.80;;;3.10;94.50;;;;;;5066471;28;20024;-73
2021/03/13 04:23:13;;;;;;;17.77;7.60;;;3.20;94.50;;;;;;5068697;28;20029;-73
2021/03/13 04:25:39;;;;;;;20.40;8.10;;;3.20;94.50;;;;;;5069178;28;20066;-73
2021/03/13 04:28:05;;;;;;;21.52;8.50;;;3.20;94.40;;;;;;5066806;28;20032;-73
2021/03/13 04:30:30;;;;;;;19.98;9.27;;;3.20;94.40;;;;;;5066996;28;20231;-73
2021/03/13 04:32:57;;;;;;;21.00;9.15;;;3.20;94.40;;;;;;5066733;28;20048;-73
2021/03/13 04:35:24;;;;;;;17.02;9.20;;;3.20;94.40;;;;;;5075788;28;20009;-73
2021/03/13 04:37:49;;;;;;;21.60;9.88;;;3.30;94.50;;;;;;5084855;28;20009;-73
2021/03/13 04:40:15;;;;;;;24.00;9.65;;;3.30;94.50;;;;;;5050041;28;20045;-73
2021/03/13 04:42:42;;;;;;;27.83;10.88;;;3.30;94.40;;;;;;5067178;28;20019;-72
2021/03/13 04:45:09;;;;;;;32.75;9.60;;;3.30;94.40;;;;;;5053950;28;20004;-73
2021/03/13 04:47:40;;;;;;;20.95;9.73;;;3.30;94.30;;;;;;5067487;28;20021;-73
2021/03/13 04:50:06;;;;;;;24.73;9.27;;;3.30;94.30;;;;;;5066689;28;20020;-73
2021/03/13 04:52:31;;;;;;;23.20;10.25;;;3.40;94.20;;;;;;5066215;28;20266;-73
2021/03/13 04:54:57;;;;;;;25.25;9.88;;;3.40;94.20;;;;;;5071861;28;20017;-72
2021/03/13 04:57:23;;;;;;;26.98;9.23;;;3.40;94.20;;;;;;5086568;28;20005;-73
2021/03/13 04:59:49;;;;;;;31.15;10.50;;;3.40;94.40;;;;;;5073952;28;20314;-73
2021/03/13 05:02:15;;;;;;;24.33;9.75;;;3.40;94.10;;;;;;5065333;28;20082;-75
2021/03/13 05:04:41;;;;;;;21.70;10.60;;;3.40;94.10;;;;;;5049086;28;20314;-73
2021/03/13 05:07:06;;;;;;;26.38;11.07;;;3.50;94.20;;;;;;5066963;28;20048;-73
2021/03/13 05:09:32;;;;;;;30.73;11.25;;;3.50;94.20;;;;;;5066052;28;20021;-73
2021/03/13 05:11:57;;;;;;;34.65;11.02;;;3.50;94.20;;;;;;5064895;28;20055;-73
2021/03/13 05:14:23;;;;;;;26.55;11.05;;;3.50;94.20;;;;;;5062465;28;20009;-73
2021/03/13 05:16:49;;;;;;;31.02;11.65;;;3.60;94.30;;;;;;5065865;28;20281;-73
2021/03/13 05:19:14;;;;;;;28.40;12.07;;;3.60;94.30;;;;;;5048764;28;20016;-73
2021/03/13 05:21:40;;;;;;;33.60;12.23;;;3.60;94.30;;;;;;5062307;28;20017;-72
2021/03/13 05:24:06;;;;;;;35.80;11.68;;;3.70;94.30;;;;;;5065503;28;20009;-72
2021/03/13 05:26:31;;;;;;;36.65;11.90;;;3.70;94.20;;;;;;5064922;28;20052;-73
2021/03/13 05:28:57;;;;;;;35.70;12.43;;;3.70;94.10;;;;;;5065230;28;20024;-73
2021/03/13 05:31:23;;;;;;;28.98;11.48;;;3.80;94.00;;;;;;5065619;28;20202;-72
2021/03/13 05:33:49;;;;;;;31.65;12.68;;;3.80;94.00;;;;;;5061243;28;20033;-72
2021/03/13 05:36:14;;;;;;;30.85;11.35;;;3.80;94.00;;;;;;5077667;28;20074;-73
2021/03/13 05:38:40;;;;;;;35.58;11.45;;;3.90;93.90;;;;;;5099710;28;20340;-73
2021/03/13 05:41:06;;;;;;;39.20;11.00;;;3.90;93.90;;;;;;5066159;28;20013;-73
2021/03/13 05:43:33;;;;;;;37.58;11.05;;;3.90;93.80;;;;;;5064932;28;20083;-73
2021/03/13 05:46:00;;;;;;;33.97;11.57;;;4.00;93.80;;;;;;5064672;28;20043;-73
2021/03/13 05:48:25;;;;;;;25.05;10.25;;;4.10;93.80;;;;;;5064864;28;20017;-73
2021/03/13 05:50:51;;;;;;;30.88;11.60;;;4.10;93.70;;;;;;5065119;28;20012;-73
2021/03/13 05:53:17;;;;;;;29.95;10.50;;;4.10;93.60;;;;;;5048195;28;20032;-73
2021/03/13 05:55:42;;;;;;;25.63;10.52;;;4.10;93.70;;;;;;5048034;28;20021;-72
2021/03/13 05:58:08;;;;;;;29.00;11.00;;;4.10;93.60;;;;;;5069024;28;20294;-73
2021/03/13 06:00:36;;;;;;;32.45;10.95;;;4.10;93.50;;;;;;5067214;28;20033;-73
2021/03/13 06:03:02;;;;;;;31.13;10.23;;;4.20;93.60;;;;;;5047927;28;20032;-73
2021/03/13 06:05:27;;;;;;;37.08;10.18;;;4.10;93.50;;;;;;5071765;28;20048;-73
2021/03/13 06:07:56;;;;;;;35.63;10.68;;;4.20;93.60;;;;;;5074676;28;20021;-73
2021/03/13 06:10:22;;;;;;;44.65;10.82;;;4.20;93.50;;;;;;5046845;28;20021;-73
2021/03/13 06:12:48;;;;;;;32.50;10.48;;;4.20;93.40;;;;;;5046835;28;20005;-73
2021/03/13 06:15:14;;;;;;;39.08;10.82;;;4.30;93.40;;;;;;5064051;28;20329;-73
2021/03/13 06:17:57;;;;;;;33.78;10.40;;;4.30;93.50;;;;;;5044105;28;20014;-73
2021/03/13 06:20:35;;;;;;;37.55;11.20;;;4.40;93.40;;;;;;5059842;28;20044;-73
2021/03/13 06:23:12;;;;;;;35.47;9.80;;;4.40;93.30;;;;;;5064655;28;20012;-73
2021/03/13 06:25:37;;;;;;;37.38;10.07;;;4.50;93.40;;;;;;5063654;28;20016;-73
2021/03/13 06:28:08;;;;;;;36.28;9.88;;;4.60;93.40;;;;;;5064068;28;20009;-73
2021/03/13 06:30:38;;;;;;;29.25;8.80;;;4.60;93.30;;;;;;5064112;28;20261;-73
2021/03/13 06:33:24;;;;;;;31.40;9.20;;;4.70;93.30;;;;;;5064543;28;20055;-72
2021/03/13 06:35:50;;;;;;;33.25;8.38;;;4.70;93.20;;;;;;5064849;28;20060;-73
2021/03/13 06:38:18;;;;;;;36.10;8.90;;;4.70;93.10;;;;;;5047931;28;20012;-72
2021/03/13 06:40:44;;;;;;;22.13;7.80;;;4.80;93.00;;;;;;5047918;28;20024;-73
2021/03/13 06:43:24;;;;;;;35.53;7.82;;;4.80;93.00;;;;;;5047301;28;20009;-73
2021/03/13 06:46:11;;;;;;;27.73;7.78;;;4.90;93.10;;;;;;5063587;28;20034;-73
2021/03/13 06:48:42;;;;;;;31.02;8.43;;;4.90;93.00;;;;;;5064114;28;20020;-72
2021/03/13 06:51:26;;;;;;;31.45;7.70;;;5.00;93.00;;;;;;5064486;28;20203;-72
2021/03/13 06:53:59;;;;;;;27.08;7.90;;;5.00;92.90;;;;;;5064741;28;20013;-73
2021/03/13 06:56:26;;;;;;;38.88;8.48;;;5.00;92.90;;;;;;5046134;28;20062;-73
2021/03/13 06:58:51;;;;;;;21.33;7.50;;;5.00;92.80;;;;;;5063969;28;20430;-73
2021/03/13 07:01:17;;;;;;;26.60;7.43;;;5.00;92.80;;;;;;5046827;28;20021;-73
2021/03/13 07:03:52;;;;;;;26.10;7.38;;;5.00;92.70;;;;;;5047301;28;20029;-73
2021/03/13 07:06:18;;;;;;;30.75;8.18;;;4.90;92.80;;;;;;5058990;28;20325;-73
2021/03/13 07:08:45;;;;;;;36.22;8.43;;;5.00;92.80;;;;;;5085467;28;20084;-73
2021/03/13 07:11:10;;;;;;;33.90;7.25;;;5.00;92.80;;;;;;5062863;28;20311;-72
2021/03/13 07:13:37;;;;;;;27.08;7.60;;;5.10;92.70;;;;;;5063170;28;20005;-73
2021/03/13 07:16:22;;;;;;;29.48;7.78;;;5.10;92.60;;;;;;5062493;28;20013;-73
2021/03/13 07:18:48;;;;;;;27.33;7.40;;;5.10;92.60;;;;;;5062673;28;20207;-73
2021/03/13 07:21:14;;;;;;;32.17;9.02;;;5.10;92.60;;;;;;5063252;28;20084;-73
2021/03/13 07:23:44;;;;;;;34.47;8.20;;;5.10;92.50;;;;;;5045585;28;20049;-73
2021/03/13 07:26:10;;;;;;;32.45;8.13;;;5.20;92.50;;;;;;5068872;28;20013;-73
2021/03/13 07:28:38;;;;;;;33.17;9.07;;;5.20;92.50;;;;;;5050116;28;20433;-73
2021/03/13 07:31:04;;;;;;;42.90;9.20;;;5.20;92.50;;;;;;5050694;28;20020;-73
2021/03/13 07:33:30;;;;;;;36.17;10.77;;;5.20;92.40;;;;;;5050454;28;20005;-73
2021/03/13 07:35:55;;;;;;;40.67;10.63;;;5.30;92.40;;;;;;5074749;28;20284;-73
2021/03/13 07:38:21;;;;;;;39.50;9.07;;;5.30;92.30;;;;;;5072260;28;20076;-73
2021/03/13 07:40:47;;;;;;;35.03;8.40;;;5.30;92.20;;;;;;5066014;28;20017;-72
2021/03/13 07:43:14;;;;;;;39.00;8.85;;;5.30;92.30;;;;;;5066192;28;20066;-73
2021/03/13 07:45:40;;;;;;;38.72;9.38;;;5.40;92.20;;;;;;5068143;28;20012;-73
2021/03/13 07:48:08;;;;;;;42.22;10.38;;;5.50;92.20;;;;;;5066519;28;20027;-73
2021/03/13 07:50:33;;;;;;;55.20;9.20;;;5.50;91.90;;;;;;5066910;28;20091;-73
2021/03/13 07:52:59;;;;;;;35.78;8.65;;;5.50;91.70;;;;;;5049443;28;20314;-73
2021/03/13 07:55:25;;;;;;;42.03;9.98;;;5.50;91.80;;;;;;5066207;28;20028;-74
2021/03/13 07:57:50;;;;;;;32.50;8.02;;;5.70;91.60;;;;;;5065613;28;20017;-73
2021/03/13 08:00:17;;;;;;;38.55;7.32;;;5.80;91.20;;;;;;5055122;28;20056;-73
2021/03/13 08:02:46;;;;;;;26.67;7.05;;;5.60;90.60;;;;;;5028639;28;20009;-73
2021/03/13 08:05:15;;;;;;;33.28;7.60;;;5.70;90.60;;;;;;5047319;28;20052;-73
2021/03/13 08:08:00;;;;;;;34.65;8.00;;;5.80;90.60;;;;;;5093880;28;20012;-73
2021/03/13 08:10:50;;;;;;;32.33;7.30;;;5.90;90.60;;;;;;5065068;28;20072;-73
2021/03/13 08:13:28;;;;;;;27.63;6.78;;;5.80;90.40;;;;;;5065440;28;20020;-73
2021/03/13 08:16:06;;;;;;;32.47;7.00;;;5.80;90.30;;;;;;5065267;28;20013;-73
2021/03/13 08:18:50;;;;;;;30.58;6.25;;;5.80;90.20;;;;;;5064961;28;20016;-73
2021/03/13 08:21:22;;;;;;;31.38;6.53;;;5.70;90.20;;;;;;5066720;28;20119;-73
2021/03/13 08:23:50;;;;;;;32.63;7.80;;;5.70;90.10;;;;;;5053762;28;20019;-73
2021/03/13 08:26:17;;;;;;;33.45;6.53;;;5.70;90.30;;;;;;5074845;28;20054;-73
2021/03/13 08:28:46;;;;;;;26.02;6.53;;;5.70;90.30;;;;;;5076454;28;20053;-73
2021/03/13 08:31:32;;;;;;;29.35;6.28;;;5.60;90.10;;;;;;5066290;28;20110;-73
2021/03/13 08:34:09;;;;;;;25.23;5.75;;;5.70;90.10;;;;;;5065248;28;20001;-73
2021/03/13 08:36:47;;;;;;;26.02;6.28;;;5.70;90.10;;;;;;5065089;28;20024;-73
2021/03/13 08:39:14;;;;;;;25.88;7.35;;;5.70;90.00;;;;;;5066831;28;20047;-73
2021/03/13 08:41:40;;;;;;;32.10;6.15;;;5.70;90.00;;;;;;5066058;28;20336;-73
2021/03/13 08:44:06;;;;;;;21.88;5.63;;;5.80;90.10;;;;;;5067008;28;20008;-73
2021/03/13 08:46:47;;;;;;;20.10;5.40;;;5.90;89.90;;;;;;5067526;28;20078;-73
2021/03/13 08:49:26;;;;;;;30.00;6.93;;;6.00;89.80;;;;;;5076276;28;20020;-73
2021/03/13 08:52:06;;;;;;;26.25;6.68;;;6.10;89.20;;;;;;5076399;28;20021;-73
2021/03/13 08:54:38;;;;;;;24.98;7.07;;;6.10;88.70;;;;;;5072585;28;20021;-75
2021/03/13 08:57:04;;;;;;;;;;;6.10;88.80;;;;;;5084757;28;20016;-73
2021/03/13 08:59:30;;;;;;;15.70;6.43;;;6.00;88.00;;;;;;5054196;28;19924;-73
2021/03/13 09:02:12;;;;;;;16.75;6.95;;;6.00;88.40;;;;;;5048178;28;20017;-73
2021/03/13 09:04:38;;;;;;;24.25;7.63;;;5.90;88.30;;;;;;5065208;28;20009;-74
2021/03/13 09:07:04;;;;;;;21.27;7.30;;;5.80;88.60;;;;;;5079509;28;20049;-73
2021/03/13 09:09:31;;;;;;;20.65;7.97;;;5.90;89.00;;;;;;5086353;28;20031;-73
2021/03/13 09:12:09;;;;;;;22.83;8.15;;;6.00;88.30;;;;;;5067523;28;20080;-73
2021/03/13 09:14:35;;;;;;;21.98;8.35;;;6.10;87.90;;;;;;5064255;28;20055;-73
2021/03/13 09:17:25;;;;;;;22.63;8.10;;;6.20;87.50;;;;;;5046900;28;20016;-73
2021/03/13 09:19:51;;;;;;;28.67;8.57;;;6.40;86.90;;;;;;5055916;28;20033;-73
2021/03/13 09:22:17;;;;;;;21.92;7.95;;;6.50;85.80;;;;;;5064318;28;20019;-73
2021/03/13 09:24:43;;;;;;;18.52;8.18;;;7.10;85.80;;;;;;5063683;28;20262;-74
2021/03/13 09:27:09;;;;;;;23.92;7.82;;;7.30;83.70;;;;;;5078064;28;20039;-74
2021/03/13 09:29:38;;;;;;;25.30;8.70;;;8.10;81.70;;;;;;5073254;28;20020;-74
2021/03/13 09:32:09;;;;;;;33.17;10.55;;;8.40;79.70;;;;;;5063063;28;20080;-74
2021/03/13 09:34:38;;;;;;;29.50;9.63;;;8.10;78.20;;;;;;5062876;28;20048;-73
2021/03/13 09:37:17;;;;;;;28.45;8.50;;;7.70;80.20;;;;;;5046603;28;20017;-73
2021/03/13 09:39:44;;;;;;;27.27;8.82;;;7.50;80.60;;;;;;5063096;28;20021;-75
2021/03/13 09:42:19;;;;;;;24.27;8.80;;;7.70;81.20;;;;;;5063710;28;20084;-73
2021/03/13 09:44:49;;;;;;;19.90;7.68;;;7.70;79.90;;;;;;5072863;28;20013;-73
2021/03/13 09:47:17;;;;;;;20.73;8.13;;;7.40;80.40;;;;;;5062184;28;20067;-74
2021/03/13 09:49:44;;;;;;;24.58;8.20;;;7.10;80.70;;;;;;5062255;28;20330;-74
2021/03/13 09:52:11;;;;;;;24.02;8.48;;;6.80;81.70;;;;;;5059114;28;20035;-73
2021/03/13 09:54:37;;;;;;;21.95;8.00;;;6.60;83.20;;;;;;5059336;28;20079;-73
2021/03/13 09:57:13;;;;;;;26.60;9.30;;;6.40;84.10;;;;;;5063145;28;20230;-73
2021/03/13 09:59:39;;;;;;;24.23;10.10;;;6.20;84.80;;;;;;5046054;28;20013;-73
2021/03/13 10:02:04;;;;;;;34.97;12.80;;;6.00;86.00;;;;;;5062568;28;20016;-74
2021/03/13 10:04:30;;;;;;;29.58;12.48;;;6.10;86.70;;;;;;5042960;28;20091;-74
2021/03/13 10:06:56;;;;;;;33.92;15.07;;;6.00;86.90;;;;;;5057366;28;20049;-73
2021/03/13 10:09:22;;;;;;;38.13;15.75;;;6.10;87.10;;;;;;5062841;28;20013;-73
2021/03/13 10:11:48;;;;;;;28.98;13.25;;;6.10;87.10;;;;;;5046167;28;20039;-74
2021/03/13 10:14:23;;;;;;;24.65;11.00;;;6.10;87.00;;;;;;5045811;28;20004;-73
2021/03/13 10:16:58;;;;;;;24.65;9.70;;;6.00;87.00;;;;;;5062842;28;20030;-74
2021/03/13 10:19:40;;;;;;;28.55;11.75;;;5.80;87.20;;;;;;5069272;28;20016;-73
2021/03/13 10:22:06;;;;;;;30.65;10.65;;;5.90;88.00;;;;;;5082407;28;20113;-74
2021/03/13 10:24:41;;;;;;;31.58;9.60;;;5.90;88.20;;;;;;5082747;28;20059;-74
2021/03/13 10:27:07;;;;;;;23.85;10.63;;;5.80;88.70;;;;;;5062257;28;20019;-73
2021/03/13 10:29:32;;;;;;;27.27;10.80;;;5.80;89.10;;;;;;5062074;28;20029;-73
2021/03/13 10:32:02;;;;;;;23.60;10.63;;;5.80;89.20;;;;;;5074472;28;20005;-72
2021/03/13 10:34:35;;;;;;;23.73;11.02;;;5.90;89.10;;;;;;5062434;28;20047;-74
2021/03/13 10:37:01;;;;;;;30.88;11.18;;;6.00;88.90;;;;;;5063841;28;20009;-74
2021/03/13 10:39:26;;;;;;;19.92;9.93;;;6.10;88.50;;;;;;5062310;28;20254;-74
2021/03/13 10:42:01;;;;;;;20.88;10.13;;;6.10;88.30;;;;;;5063056;28;20025;-73
2021/03/13 10:44:27;;;;;;;26.30;10.85;;;5.90;88.80;;;;;;5042800;28;20333;-74
2021/03/13 10:46:52;;;;;;;17.65;10.07;;;6.10;90.00;;;;;;5051297;28;20073;-74
2021/03/13 10:49:25;;;;;;;30.60;11.15;;;6.20;88.40;;;;;;5044474;28;20067;-73
2021/03/13 10:51:52;;;;;;;22.92;10.75;;;6.10;88.30;;;;;;5029704;28;20021;-74
2021/03/13 10:54:23;;;;;;;22.00;10.98;;;6.20;88.30;;;;;;5062446;28;20016;-74
2021/03/13 10:56:48;;;;;;;19.13;9.07;;;6.40;88.30;;;;;;5062320;28;20236;-74
2021/03/13 10:59:14;;;;;;;24.60;10.38;;;6.40;87.30;;;;;;5045282;28;20027;-73
2021/03/13 11:01:46;;;;;;;24.58;9.20;;;6.30;87.80;;;;;;5065664;28;20037;-73
2021/03/13 11:04:13;;;;;;;22.52;9.20;;;6.30;87.60;;;;;;5065945;28;20314;-74
2021/03/13 11:06:38;;;;;;;26.98;8.45;;;6.30;87.30;;;;;;5065894;28;20037;-74
2021/03/13 11:09:09;;;;;;;19.88;8.05;;;6.10;87.40;;;;;;5049490;28;20051;-73
2021/03/13 11:11:35;;;;;;;20.65;9.75;;;6.10;88.00;;;;;;5065774;28;20058;-74
2021/03/13 11:14:00;;;;;;;19.27;7.88;;;6.20;88.00;;;;;;5066059;28;20411;-74
2021/03/13 11:16:26;;;;;;;19.50;9.43;;;6.30;87.50;;;;;;5065938;28;20009;-74
2021/03/13 11:18:52;;;;;;;17.50;8.98;;;6.20;87.80;;;;;;5049658;28;20040;-73
2021/03/13 11:21:18;;;;;;;27.13;9.68;;;6.10;87.90;;;;;;5072563;28;20012;-74
2021/03/13 11:23:44;;;;;;;19.48;7.82;;;6.20;88.00;;;;;;5085124;28;20071;-73
2021/03/13 11:26:11;;;;;;;24.08;10.32;;;6.20;87.80;;;;;;5066673;28;20109;-73
2021/03/13 11:28:37;;;;;;;22.02;9.05;;;6.20;87.80;;;;;;5066241;28;20052;-73
2021/03/13 11:31:04;;;;;;;17.13;7.80;;;6.30;87.60;;;;;;5070012;28;20012;-73
2021/03/13 11:33:29;;;;;;;18.55;8.05;;;6.20;86.90;;;;;;5082773;28;20015;-73
2021/03/13 11:35:55;;;;;;;23.00;8.77;;;6.10;87.00;;;;;;5065752;28;20131;-73
2021/03/13 11:38:21;;;;;;;16.98;7.80;;;6.10;88.20;;;;;;5067205;28;20009;-74
2021/03/13 11:40:46;;;;;;;20.98;8.45;;;6.10;87.00;;;;;;5065666;28;20017;-74
2021/03/13 11:43:12;;;;;;;20.83;8.43;;;6.20;86.90;;;;;;5066288;28;20017;-73
2021/03/13 11:45:38;;;;;;;24.00;8.57;;;6.30;86.90;;;;;;5066228;28;20188;-73
2021/03/13 11:48:03;;;;;;;21.90;9.75;;;6.40;86.20;;;;;;5049382;28;20023;-73
2021/03/13 11:50:29;;;;;;;17.63;8.18;;;6.50;86.40;;;;;;5066506;28;20036;-74
2021/03/13 11:52:56;;;;;;;15.65;7.63;;;6.50;85.60;;;;;;5065879;28;20056;-75
2021/03/13 11:55:24;;;;;;;19.38;8.90;;;6.50;85.20;;;;;;5065915;28;20009;-75
2021/03/13 11:57:49;;;;;;;21.45;8.43;;;6.50;85.10;;;;;;5048140;28;20015;-75
2021/03/13 12:00:15;;;;;;;17.95;8.30;;;6.50;85.30;;;;;;5067052;28;20017;-73
2021/03/13 12:02:41;;;;;;;19.55;9.27;;;6.50;85.10;;;;;;5049573;28;20270;-74
2021/03/13 12:05:07;;;;;;;16.85;8.73;;;6.60;85.30;;;;;;5065141;28;20021;-74
2021/03/13 12:07:33;;;;;;;29.58;9.93;;;6.60;84.90;;;;;;5066075;28;20087;-74
2021/03/13 12:09:59;;;;;;;18.05;8.60;;;6.60;85.00;;;;;;5066131;28;20084;-74
2021/03/13 12:12:24;;;;;;;20.25;8.18;;;6.60;85.10;;;;;;5066854;28;20025;-74
2021/03/13 12:14:50;;;;;;;17.83;8.55;;;6.60;84.90;;;;;;5065507;28;20013;-74
2021/03/13 12:17:16;;;;;;;20.00;9.27;;;6.50;84.90;;;;;;5066674;28;20001;-74
2021/03/13 12:19:42;;;;;;;24.30;10.65;;;6.50;85.10;;;;;;5068471;28;20013;-73
2021/03/13 12:22:07;;;;;;;16.13;8.93;;;6.60;85.60;;;;;;5051251;28;20072;-73
2021/03/13 12:24:33;;;;;;;16.00;8.80;;;6.50;85.80;;;;;;5075030;28;20133;-74
2021/03/13 12:26:59;;;;;;;25.13;11.77;;;6.60;86.10;;;;;;5080421;28;20009;-74
2021/03/13 12:29:25;;;;;;;22.15;11.57;;;6.50;86.10;;;;;;5088847;28;20036;-74
2021/03/13 12:31:51;;;;;;;24.70;11.80;;;6.50;86.80;;;;;;5078568;28;20009;-74
2021/03/13 12:34:16;;;;;;;33.22;14.50;;;6.30;88.20;;;;;;5080940;28;20013;-74
2021/03/13 12:36:42;;;;;;;30.17;13.98;;;6.20;89.60;;;;;;5098914;28;19993;-74
2021/03/13 12:39:07;;;;;;;25.48;13.80;;;6.10;90.20;;;;;;5088140;28;20033;-73
2021/03/13 12:41:33;;;;;;;23.30;12.43;;;6.10;90.30;;;;;;5066517;28;20055;-73
2021/03/13 12:43:59;;;;;;;24.20;13.30;;;6.00;90.50;;;;;;5066227;28;20009;-74
2021/03/13 12:46:24;;;;;;;30.85;12.88;;;6.00;90.80;;;;;;5047216;28;20017;-74
2021/03/13 12:48:50;;;;;;;22.08;10.73;;;6.00;90.80;;;;;;5069971;28;20092;-74
2021/03/13 12:51:16;;;;;;;20.55;9.85;;;6.00;90.80;;;;;;5067394;28;20016;-73
2021/03/13 12:53:42;;;;;;;18.83;9.30;;;5.90;90.70;;;;;;5065447;28;20028;-74